Rechercher aéroport 
image banner adimage banner adimage banner ad
image banner ad

CYSY - Sachs Harbour (David Nasogaluak Jr. Saaryuaq)

Situé à , Canada

ICAO - CYSY, IATA - YSY

Données fournies par Airmate  

Information générale

Coordonnées: N71°59'37" W125°14'29"
Élévation : 282 feet MSL.
Variation magnétique : 21.9050° East
Voir autres Aéroports à Northwest Territories

Données opérationnelles

Special qualification required
Heure actuelle UTC:
Heure actuelle locale:
Météo
METAR: CYSY 062300Z 15020KT 15SM IC DRSN FEW020 SCT150 BKN220 M18/M20 A2947 RMK SC1AS4CI1 SC TR SLP995
TAF: TAF CYSY 061840Z 0619/0624 15022G32KT P6SM FEW020 SCT140 SCT220 TEMPO 0619/0621 3SM IC BLSN FM062100 14023G33KT P6SM SCT140 TEMPO 0621/0624 2SM IC BLSN BKN140 RMK NXT FCST BY 071600Z
Voir NOTAMs / SUP AIP / TFR affectant cet aéroport [VIEW]
Fréquences de communication: [VIEW]

Pistes:

Identifiant RWYQFULongueur (ft)Largeur (ft)SurfaceLDA (ft)
0884°400298GRAVE4002
26264°400298GRAVE4002

Coordonnées de l'aéroport

Adresse: Canada

Vue satellite de CYSY